Time;durP1;ratioP1;P1;durP2;ratioP2;P2;SDS_P1;SDS_P2;PMS_P1;PMS_P2;Temp;Humidity;BMP_temperature;BMP_pressure;BME280_temperature;BME280_humidity;BME280_pressure;Samples;Min_cycle;Max_cycle;Signal;HPM_P1;HPM_P2
2023/05/11 05:01:24;;;;;;;;;1.67;1.00;;;;;15.37;81.75;-19620.94;5454783;23;45562;-83
2023/05/11 05:03:49;;;;;;;;;2.00;0.33;;;;;15.54;81.94;-19625.34;4993790;28;45452;-82
2023/05/11 05:07:01;;;;;;;;;0.00;0.00;;;;;14.98;81.41;-19610.59;4991948;28;45473;-82
2023/05/11 05:09:27;;;;;;;;;0.00;0.00;;;;;15.37;81.69;-19620.81;4942476;28;45575;-82
2023/05/11 05:11:52;;;;;;;;;0.00;0.00;;;;;15.41;82.01;-19622.00;4993382;28;45780;-81
2023/05/11 05:14:17;;;;;;;;;2.00;2.00;;;;;15.57;81.61;-19626.03;4996405;28;46109;-81
2023/05/11 05:16:43;;;;;;;;;0.67;0.67;;;;;15.52;81.61;-19624.69;4995564;28;45355;-81
2023/05/11 05:19:09;;;;;;;;;1.67;0.00;;;;;15.56;81.71;-19625.91;4993705;28;46485;-81
2023/05/11 05:21:34;;;;;;;;;1.00;1.00;;;;;15.44;81.62;-19622.53;4995056;28;45520;-81
2023/05/11 05:24:00;;;;;;;;;0.67;0.67;;;;;15.46;82.33;-19623.09;4991590;28;45942;-81
2023/05/11 05:26:25;;;;;;;;;1.00;1.00;;;;;15.39;81.72;-19621.47;4977063;28;45501;-80
2023/05/11 05:28:50;;;;;;;;;1.00;1.00;;;;;15.59;81.80;-19626.56;4996558;28;45713;-81
2023/05/11 05:31:16;;;;;;;;;1.00;1.00;;;;;15.50;82.31;-19624.28;4990999;28;45471;-81
2023/05/11 05:33:42;;;;;;;;;1.00;1.00;;;;;15.40;81.82;-19621.75;4992836;28;46828;-82
2023/05/11 05:36:07;;;;;;;;;0.00;0.00;;;;;15.05;82.13;-19612.34;4999298;28;45849;-81
2023/05/11 05:38:33;;;;;;;;;1.00;1.00;;;;;15.59;81.41;-19626.72;4994434;28;45564;-80
2023/05/11 05:40:58;;;;;;;;;2.00;1.00;;;;;15.59;81.54;-19626.56;4997644;28;45490;-79
2023/05/11 05:43:24;;;;;;;;;3.00;1.00;;;;;15.58;81.41;-19626.44;4998200;28;46220;-80
2023/05/11 05:45:49;;;;;;;;;1.00;1.00;;;;;15.55;81.48;-19625.50;4986883;28;45555;-80
2023/05/11 05:48:15;;;;;;;;;0.00;0.00;;;;;15.53;81.90;-19624.97;4993502;28;45567;-79
2023/05/11 05:50:40;;;;;;;;;1.00;1.00;;;;;15.46;81.82;-19623.09;4995060;28;46096;-81
2023/05/11 05:53:06;;;;;;;;;1.00;1.00;;;;;15.58;81.76;-19626.44;4995454;28;46944;-79
2023/05/11 05:55:32;;;;;;;;;2.00;1.00;;;;;15.33;82.02;-19619.88;4994575;28;45770;-78
2023/05/11 05:57:57;;;;;;;;;1.00;1.00;;;;;15.43;81.83;-19622.41;4995904;28;45422;-79
2023/05/11 06:00:22;;;;;;;;;1.00;1.00;;;;;15.57;82.01;-19626.16;4985272;28;45502;-78
2023/05/11 06:02:47;;;;;;;;;1.67;1.67;;;;;15.62;82.06;-19627.38;4896430;28;46057;-79
2023/05/11 06:05:13;;;;;;;;;1.67;1.67;;;;;15.64;81.95;-19627.91;4907092;28;45462;-78
2023/05/11 06:07:38;;;;;;;;;3.00;1.33;;;;;15.61;82.54;-19627.09;4900308;28;45654;-79
2023/05/11 06:10:04;;;;;;;;;6.00;1.67;;;;;15.57;81.95;-19626.03;4932228;28;45751;-79
2023/05/11 06:12:30;;;;;;;;;3.00;3.00;;;;;15.65;82.05;-19628.03;4895861;29;46483;-78
2023/05/11 06:14:55;;;;;;;;;19.67;18.33;;;;;15.67;82.04;-19628.59;4896050;28;45386;-78
2023/05/11 06:17:23;;;;;;;;;2.00;2.00;;;;;15.52;81.91;-19624.69;4896459;28;45447;-80
2023/05/11 06:19:49;;;;;;;;;3.00;3.00;;;;;15.68;82.20;-19628.84;4902033;28;45439;-79
2023/05/11 06:22:15;;;;;;;;;2.00;2.00;;;;;15.60;82.08;-19626.97;4895730;29;45772;-80
2023/05/11 06:24:40;;;;;;;;;3.00;3.00;;;;;15.68;82.51;-19628.84;4895890;28;45474;-79
2023/05/11 06:27:06;;;;;;;;;0.33;0.33;;;;;15.56;82.30;-19625.75;4898050;28;45670;-79
2023/05/11 06:29:31;;;;;;;;;1.00;1.00;;;;;15.74;82.25;-19630.59;4898728;28;45407;-80
2023/05/11 06:31:57;;;;;;;;;1.67;1.00;;;;;15.62;82.33;-19627.38;4896422;29;46246;-82
2023/05/11 06:34:23;;;;;;;;;2.33;1.33;;;;;15.76;82.59;-19631.00;4912465;28;45483;-82
2023/05/11 06:36:48;;;;;;;;;4.00;3.00;;;;;15.74;82.11;-19630.59;4995758;28;45404;-81
2023/05/11 06:39:13;;;;;;;;;1.00;1.00;;;;;15.69;82.49;-19629.25;4977381;28;45534;-83
2023/05/11 06:41:39;;;;;;;;;1.00;1.00;;;;;15.64;82.06;-19627.91;4880153;29;47074;-82
2023/05/11 06:44:04;;;;;;;;;2.67;2.00;;;;;15.72;82.58;-19630.06;4891961;28;45482;-83
2023/05/11 06:46:30;;;;;;;;;2.00;2.00;;;;;15.50;81.94;-19624.28;4892947;28;45470;-83
2023/05/11 06:48:56;;;;;;;;;1.00;1.00;;;;;15.66;82.14;-19628.31;4893422;29;46382;-83
2023/05/11 06:51:21;;;;;;;;;2.33;2.33;;;;;15.46;82.29;-19623.09;4974362;28;48361;-83
2023/05/11 06:53:47;;;;;;;;;3.33;1.00;;;;;15.25;82.40;-19617.72;4893306;29;45678;-83
2023/05/11 06:56:12;;;;;;;;;2.00;2.00;;;;;15.87;82.41;-19633.94;4888508;29;46760;-83
2023/05/11 06:58:37;;;;;;;;;4.67;4.00;;;;;15.89;82.39;-19634.34;4891440;28;45400;-83
2023/05/11 07:01:06;;;;;;;;;1.33;1.33;;;;;15.91;82.25;-19634.88;4914192;28;46151;-85
2023/05/11 07:03:32;;;;;;;;;3.00;3.00;;;;;15.66;82.19;-19628.44;4896636;28;45817;-84
2023/05/11 07:05:57;;;;;;;;;2.00;2.00;;;;;15.95;81.99;-19636.09;4899038;28;45523;-83
2023/05/11 07:08:23;;;;;;;;;2.00;2.00;;;;;15.96;82.44;-19636.34;4898816;29;45503;-83
2023/05/11 07:10:48;;;;;;;;;2.00;2.00;;;;;15.86;82.18;-19633.69;4964145;28;47810;-83
2023/05/11 07:13:13;;;;;;;;;1.33;1.33;;;;;15.87;82.30;-19633.94;4898948;29;45487;-84
2023/05/11 07:15:39;;;;;;;;;6.67;4.00;;;;;16.00;82.14;-19637.44;4898974;29;45581;-84
2023/05/11 07:18:04;;;;;;;;;2.67;2.33;;;;;15.93;82.58;-19635.44;4899246;29;45469;-84
2023/05/11 07:20:30;;;;;;;;;3.33;3.00;;;;;15.85;82.16;-19633.41;4898636;29;45569;-84
2023/05/11 07:22:57;;;;;;;;;1.00;1.00;;;;;15.91;82.05;-19634.88;4898534;28;45753;-83
2023/05/11 07:25:22;;;;;;;;;3.00;2.67;;;;;16.07;82.34;-19639.19;4898986;29;45409;-83
2023/05/11 07:27:48;;;;;;;;;3.33;2.67;;;;;15.76;82.04;-19631.00;4899031;29;45768;-83
2023/05/11 07:30:13;;;;;;;;;1.67;1.67;;;;;15.91;82.22;-19634.88;4898563;29;45560;-82
2023/05/11 07:32:38;;;;;;;;;3.00;3.00;;;;;15.92;82.16;-19635.28;4908235;28;45550;-83
2023/05/11 07:35:04;;;;;;;;;2.00;2.00;;;;;16.17;82.47;-19641.84;4898198;29;45457;-83
2023/05/11 07:37:30;;;;;;;;;3.00;3.00;;;;;16.20;82.26;-19642.66;4898464;28;45518;-83
2023/05/11 07:39:55;;;;;;;;;2.00;2.00;;;;;16.18;82.34;-19642.00;4898332;28;46854;-83
2023/05/11 07:42:20;;;;;;;;;2.00;2.00;;;;;16.22;82.20;-19643.19;4897923;29;45514;-83
2023/05/11 07:44:46;;;;;;;;;4.00;3.00;;;;;16.29;81.90;-19644.81;4898040;29;46134;-83
2023/05/11 07:47:12;;;;;;;;;3.33;2.00;;;;;16.21;82.08;-19642.94;4898290;28;45506;-83
2023/05/11 07:49:37;;;;;;;;;4.00;1.33;;;;;16.28;82.20;-19644.66;4897976;29;46107;-83
2023/05/11 07:52:02;;;;;;;;;5.00;3.67;;;;;16.40;82.12;-19647.88;4897610;28;45812;-83
2023/05/11 07:54:28;;;;;;;;;2.00;2.00;;;;;16.33;82.11;-19646.00;4897807;29;45689;-84
2023/05/11 07:56:53;;;;;;;;;2.67;2.67;;;;;16.48;81.10;-19649.75;4896693;28;45349;-83
2023/05/11 07:59:18;;;;;;;;;2.67;2.67;;;;;16.40;81.32;-19647.75;4897447;29;45356;-83
2023/05/11 08:01:44;;;;;;;;;2.00;2.00;;;;;16.55;81.14;-19651.63;4897517;28;45436;-83
2023/05/11 08:04:09;;;;;;;;;2.67;2.00;;;;;16.46;80.74;-19649.50;4898128;29;45826;-85
2023/05/11 08:06:35;;;;;;;;;3.00;3.00;;;;;16.62;80.82;-19653.66;4896528;28;45896;-83
2023/05/11 08:09:00;;;;;;;;;2.00;2.00;;;;;16.57;81.22;-19652.31;4902861;28;46915;-82
2023/05/11 08:11:26;;;;;;;;;3.00;3.00;;;;;16.54;81.05;-19651.38;4903479;28;45433;-82
2023/05/11 08:13:51;;;;;;;;;2.00;2.00;;;;;16.73;81.13;-19656.31;4896628;28;45435;-82
2023/05/11 08:16:17;;;;;;;;;3.00;1.33;;;;;16.75;80.70;-19656.88;4897423;29;45597;-83
2023/05/11 08:18:42;;;;;;;;;2.00;2.00;;;;;16.64;80.80;-19654.19;4946460;28;47085;-82
2023/05/11 08:21:07;;;;;;;;;5.00;2.00;;;;;16.68;80.15;-19655.13;4895978;29;47742;-82
2023/05/11 08:23:32;;;;;;;;;3.67;3.00;;;;;16.66;80.36;-19654.59;4978144;28;59398;-82
2023/05/11 08:25:58;;;;;;;;;3.33;3.00;;;;;16.65;80.59;-19654.44;4897246;29;45533;-83
2023/05/11 08:28:23;;;;;;;;;3.00;3.00;;;;;16.80;80.57;-19658.22;4896863;28;46488;-83
2023/05/11 08:30:56;;;;;;;;;2.00;2.00;;;;;16.72;80.84;-19656.06;4896718;29;48745;-84
2023/05/11 08:33:22;;;;;;;;;2.00;2.00;;;;;16.91;80.12;-19661.16;4979219;28;45869;-87
2023/05/11 08:35:47;;;;;;;;;3.00;3.00;;;;;16.56;80.23;-19651.91;4898390;29;45699;-86
2023/05/11 08:38:13;;;;;;;;;2.33;2.33;;;;;16.50;80.12;-19650.28;4889381;29;46496;-86
2023/05/11 08:40:45;;;;;;;;;4.00;3.00;;;;;16.10;79.32;-19639.84;4896856;29;45479;-86
2023/05/11 08:43:12;;;;;;;;;3.00;3.00;;;;;17.03;79.62;-19664.38;4896983;29;45431;-85
2023/05/11 08:45:42;;;;;;;;;6.33;5.67;;;;;16.77;79.90;-19657.53;4897154;28;45337;-84
2023/05/11 08:48:07;;;;;;;;;3.00;3.00;;;;;17.00;79.59;-19663.44;4889956;29;45645;-84
2023/05/11 08:50:33;;;;;;;;;4.00;3.00;;;;;17.16;80.02;-19667.56;4897010;28;45483;-85
2023/05/11 08:52:58;;;;;;;;;4.00;3.00;;;;;17.16;79.83;-19667.72;4896772;29;45443;-84
2023/05/11 08:55:25;;;;;;;;;3.33;3.33;;;;;17.32;80.06;-19671.84;4896725;29;45621;-84
2023/05/11 08:57:52;;;;;;;;;2.67;2.67;;;;;17.43;79.51;-19674.81;4907571;28;46189;-85
2023/05/11 09:00:22;;;;;;;;;2.00;2.00;;;;;17.45;79.52;-19675.22;4965972;28;45828;-84
2023/05/11 09:02:48;;;;;;;;;2.67;2.67;;;;;17.62;78.85;-19679.63;4986858;28;45563;-84
2023/05/11 09:05:14;;;;;;;;;3.00;3.00;;;;;17.82;79.11;-19684.84;4995771;28;45435;-83
2023/05/11 09:07:41;;;;;;;;;3.00;3.00;;;;;17.48;78.90;-19676.00;4982619;28;47281;-84
2023/05/11 09:10:08;;;;;;;;;4.33;3.67;;;;;18.00;78.89;-19689.53;4979707;28;45770;-84
2023/05/11 09:12:34;;;;;;;;;4.33;4.00;;;;;18.06;79.12;-19691.25;4990044;28;45731;-84
2023/05/11 09:15:07;;;;;;;;;4.67;3.00;;;;;17.89;78.80;-19686.72;4973254;28;45526;-84
2023/05/11 09:17:32;;;;;;;;;3.00;3.00;;;;;18.09;78.83;-19692.06;4982461;28;45976;-85
2023/05/11 09:20:04;;;;;;;;;2.67;2.67;;;;;18.20;77.78;-19694.88;4989347;28;50175;-84
2023/05/11 09:22:41;;;;;;;;;1.67;1.67;;;;;18.07;77.45;-19691.53;4975328;28;45471;-86
2023/05/11 09:25:16;;;;;;;;;2.00;2.00;;;;;18.10;77.64;-19692.34;4985575;28;45479;-86
2023/05/11 09:27:46;;;;;;;;;5.33;3.00;;;;;17.90;77.22;-19686.97;4983890;28;45550;-85
2023/05/11 09:30:22;;;;;;;;;1.67;1.67;;;;;18.46;77.05;-19701.69;4967715;28;45447;-86
2023/05/11 09:32:51;;;;;;;;;2.00;2.00;;;;;18.57;76.61;-19704.50;4982663;28;45507;-86
2023/05/11 09:35:31;;;;;;;;;2.00;2.00;;;;;17.75;76.48;-19683.09;4984856;28;45651;-86
2023/05/11 09:41:19;;;;;;;;;3.00;2.00;;;;;18.48;76.49;-19702.22;4966317;28;46710;-87
2023/05/11 09:43:49;;;;;;;;;1.67;1.67;;;;;18.11;75.91;-19692.47;4978336;28;45517;-86
2023/05/11 09:49:35;;;;;;;;;;;;;;;;;;;;;
2023/05/11 09:52:01;;;;;;;;;3.00;3.00;;;;;18.24;74.71;-19695.81;4992807;28;73368;-86
2023/05/11 09:54:51;;;;;;;;;2.00;2.00;;;;;18.43;74.63;-19700.88;4975551;28;45505;-88
2023/05/11 09:57:28;;;;;;;;;2.00;2.00;;;;;18.27;74.68;-19696.59;4988832;28;45565;-85
2023/05/11 09:59:55;;;;;;;;;3.00;2.00;;;;;18.50;75.17;-19702.75;4993422;28;45632;-83
2023/05/11 10:02:40;;;;;;;;;3.33;2.67;;;;;18.85;74.81;-19711.72;4992692;28;45708;-84
2023/05/11 10:11:44;;;;;;;;;1.00;1.00;;;;;18.61;74.18;-19705.56;4979486;22;45546;-89
2023/05/11 10:16:46;;;;;;;;;3.00;1.00;;;;;17.97;74.70;-19688.84;5052952;22;45539;-84
2023/05/11 10:19:39;;;;;;;;;2.33;1.00;;;;;18.88;74.86;-19712.66;4975428;28;45696;-87
2023/05/11 10:22:05;;;;;;;;;2.00;2.00;;;;;18.90;74.00;-19713.03;4974648;28;47142;-83
2023/05/11 10:24:31;;;;;;;;;3.33;3.00;;;;;18.65;74.33;-19706.63;4979093;28;46128;-82
2023/05/11 10:27:15;;;;;;;;;2.00;1.33;;;;;18.26;74.31;-19696.34;4965482;28;45596;-84
2023/05/11 10:29:42;;;;;;;;;2.00;2.00;;;;;18.69;73.80;-19707.56;4966381;28;45653;-83
2023/05/11 10:32:11;;;;;;;;;2.00;2.00;;;;;18.63;74.01;-19706.09;4982712;28;46515;-84
2023/05/11 10:35:23;;;;;;;;;2.00;2.00;;;;;19.05;73.28;-19717.06;5208749;22;45379;-86
2023/05/11 10:38:12;;;;;;;;;1.00;1.00;;;;;18.80;73.30;-19710.50;4969356;28;45590;-86
2023/05/11 10:40:40;;;;;;;;;2.00;2.00;;;;;18.66;72.90;-19706.91;4975835;28;45452;-82
2023/05/11 10:43:33;;;;;;;;;1.00;1.00;;;;;19.01;72.15;-19716.00;4971592;28;47057;-83
2023/05/11 10:46:36;;;;;;;;;1.00;1.00;;;;;18.99;72.82;-19715.44;4961939;28;45724;-84
2023/05/11 10:49:23;;;;;;;;;0.00;0.00;;;;;18.95;72.75;-19714.38;4978897;28;45471;-86
2023/05/11 11:00:42;;;;;;;;;1.00;1.00;;;;;18.76;71.36;-19709.44;4989870;28;45593;-89
2023/05/11 11:09:16;;;;;;;;;3.67;3.67;;;;;18.41;72.27;-19700.34;4989750;22;72024;-82
2023/05/11 11:11:49;;;;;;;;;2.67;2.67;;;;;18.46;71.03;-19701.69;4980768;28;45424;-82
2023/05/11 11:14:18;;;;;;;;;3.00;3.00;;;;;18.34;71.04;-19698.63;4985508;28;45661;-82
2023/05/11 11:17:14;;;;;;;;;2.00;2.00;;;;;18.63;71.64;-19706.09;4980295;28;47198;-84
2023/05/11 11:19:42;;;;;;;;;0.75;0.75;;;;;18.58;71.58;-19704.75;4980707;28;45492;-82
2023/05/11 11:22:33;;;;;;;;;2.00;2.00;;;;;18.53;71.78;-19703.56;4991207;28;45364;-82
2023/05/11 11:24:59;;;;;;;;;1.00;1.00;;;;;18.44;71.87;-19701.03;4982795;28;45453;-81
2023/05/11 11:27:42;;;;;;;;;1.67;1.67;;;;;18.46;71.89;-19701.56;4982741;28;45883;-82
2023/05/11 11:30:24;;;;;;;;;2.00;2.00;;;;;18.41;71.54;-19700.34;4990708;28;45825;-83
2023/05/11 11:32:51;;;;;;;;;1.67;1.67;;;;;18.32;70.95;-19698.06;4981082;28;45780;-80
2023/05/11 11:35:42;;;;;;;;;1.00;1.00;;;;;18.32;71.30;-19698.06;4984279;28;45460;-82
2023/05/11 11:38:28;;;;;;;;;4.00;2.00;;;;;18.11;71.84;-19692.59;4990592;28;45432;-83
2023/05/11 11:40:54;;;;;;;;;2.00;2.00;;;;;18.29;71.26;-19697.16;4981019;28;45615;-84
2023/05/11 11:43:23;;;;;;;;;2.00;2.00;;;;;18.06;71.66;-19691.13;4995284;22;45669;-84
2023/05/11 11:46:01;;;;;;;;;1.00;1.00;;;;;18.02;71.30;-19690.06;4994402;28;45455;-83
2023/05/11 11:48:34;;;;;;;;;1.00;1.00;;;;;18.22;71.12;-19695.28;4993583;28;46571;-84
2023/05/11 11:51:07;;;;;;;;;1.33;1.33;;;;;18.08;70.25;-19691.66;4996941;28;45464;-84
2023/05/11 11:53:36;;;;;;;;;1.00;1.00;;;;;18.18;70.95;-19694.19;4997082;28;45388;-82
2023/05/11 11:56:06;;;;;;;;;1.00;1.00;;;;;18.16;70.57;-19693.66;4997738;28;45388;-83
2023/05/11 11:58:40;;;;;;;;;1.00;1.00;;;;;18.16;71.13;-19693.66;4981360;28;46227;-84
2023/05/11 12:01:16;;;;;;;;;3.00;2.00;;;;;18.15;70.72;-19693.53;4997249;28;45383;-85
2023/05/11 12:03:43;;;;;;;;;1.00;1.00;;;;;18.13;70.67;-19693.13;4996971;28;45411;-84
2023/05/11 12:06:10;;;;;;;;;1.00;1.00;;;;;18.08;70.82;-19691.66;4997616;28;45504;-82
2023/05/11 12:08:37;;;;;;;;;1.00;1.00;;;;;18.03;70.90;-19690.47;4997090;28;46368;-81
2023/05/11 12:11:04;;;;;;;;;1.33;1.33;;;;;18.09;71.12;-19692.06;4997349;28;45743;-81
2023/05/11 12:13:30;;;;;;;;;2.00;2.00;;;;;18.07;70.62;-19691.53;4996552;28;45585;-83
2023/05/11 12:16:16;;;;;;;;;2.00;1.00;;;;;18.11;70.49;-19692.47;4997469;28;45586;-83
2023/05/11 12:18:52;;;;;;;;;1.00;1.00;;;;;18.11;71.08;-19692.47;4996821;28;46537;-81
2023/05/11 12:21:19;;;;;;;;;1.00;1.00;;;;;17.82;70.45;-19684.84;4997226;28;45840;-82
2023/05/11 12:23:55;;;;;;;;;2.33;0.67;;;;;17.99;70.52;-19689.38;4996849;28;45476;-86
2023/05/11 12:26:26;;;;;;;;;1.00;0.67;;;;;18.03;70.28;-19690.31;4996710;28;45388;-86
2023/05/11 12:29:06;;;;;;;;;1.00;1.00;;;;;17.80;70.29;-19684.31;4996132;28;47229;-86
2023/05/11 12:31:38;;;;;;;;;0.00;0.00;;;;;17.72;70.25;-19682.44;4993693;28;45355;-84
2023/05/11 12:37:30;;;;;;;;;1.00;1.00;;;;;18.11;69.34;-19692.59;4997413;28;45433;-83
2023/05/11 12:39:56;;;;;;;;;1.00;1.00;;;;;17.81;69.56;-19684.56;4996666;28;46388;-83
2023/05/11 12:42:21;;;;;;;;;2.00;2.00;;;;;18.00;69.47;-19689.53;4996412;28;45399;-83
2023/05/11 12:44:47;;;;;;;;;1.33;1.00;;;;;18.03;69.46;-19690.31;4996470;28;45407;-83
2023/05/11 12:47:13;;;;;;;;;2.00;2.00;;;;;17.98;69.05;-19688.97;4997375;28;45423;-83
2023/05/11 12:49:41;;;;;;;;;2.00;1.00;;;;;18.15;68.46;-19693.53;4997094;28;46537;-80
2023/05/11 12:52:09;;;;;;;;;1.00;1.00;;;;;18.17;69.10;-19693.94;4996840;28;45454;-83
2023/05/11 12:54:46;;;;;;;;;0.00;0.00;;;;;18.19;69.10;-19694.47;4997037;28;45472;-83
2023/05/11 12:57:29;;;;;;;;;1.00;1.00;;;;;17.98;69.20;-19688.97;4997394;28;45483;-83
2023/05/11 13:00:09;;;;;;;;;1.00;1.00;;;;;17.69;69.89;-19681.63;4996758;28;46168;-83
2023/05/11 13:02:34;;;;;;;;;1.00;1.00;;;;;18.30;69.56;-19697.53;4995835;28;45517;-83
2023/05/11 13:05:12;;;;;;;;;0.67;0.67;;;;;18.18;69.71;-19694.19;4995855;28;45588;-83
2023/05/11 13:07:38;;;;;;;;;2.00;1.00;;;;;18.20;68.94;-19694.75;4997036;28;45513;-83
2023/05/11 13:10:03;;;;;;;;;0.00;0.00;;;;;18.43;69.14;-19700.75;4978677;28;46981;-83
2023/05/11 13:12:29;;;;;;;;;2.00;0.00;;;;;18.43;69.30;-19700.88;4996559;28;45454;-81
2023/05/11 13:15:11;;;;;;;;;1.67;0.33;;;;;18.43;69.90;-19700.88;4996880;28;45507;-83
2023/05/11 13:17:38;;;;;;;;;1.00;1.00;;;;;18.40;69.45;-19700.09;4997145;28;45594;-83
2023/05/11 13:20:25;;;;;;;;;0.67;0.67;;;;;18.48;68.80;-19702.09;4996287;28;47382;-83
2023/05/11 13:26:38;;;;;;;;;2.25;1.00;;;;;17.80;69.09;-19684.44;4892003;29;45451;-86
2023/05/11 13:29:04;;;;;;;;;1.00;1.00;;;;;18.64;68.99;-19706.22;4897680;29;45597;-82
2023/05/11 13:31:29;;;;;;;;;1.00;0.00;;;;;18.81;68.64;-19710.78;4897037;29;46075;-85
2023/05/11 13:33:55;;;;;;;;;1.00;1.00;;;;;18.17;68.57;-19694.06;4897010;29;45583;-83
2023/05/11 13:36:20;;;;;;;;;0.25;0.25;;;;;18.25;67.79;-19696.06;4897132;29;45505;-83
2023/05/11 13:38:45;;;;;;;;;0.00;0.00;;;;;18.56;67.45;-19704.22;4897211;29;45486;-85
2023/05/11 13:41:12;;;;;;;;;4.00;3.00;;;;;18.58;67.98;-19704.63;4897095;29;46010;-83
2023/05/11 13:43:56;;;;;;;;;1.00;1.00;;;;;17.96;68.12;-19688.59;4893996;29;45495;-81
2023/05/11 13:46:21;;;;;;;;;1.33;1.33;;;;;18.92;67.38;-19713.72;4904249;28;45496;-82
2023/05/11 13:48:47;;;;;;;;;0.75;0.75;;;;;18.93;67.74;-19713.97;4900155;28;45920;-82
2023/05/11 13:51:12;;;;;;;;;1.00;1.00;;;;;18.91;67.85;-19713.44;4915805;28;46300;-81
2023/05/11 13:53:38;;;;;;;;;1.00;1.00;;;;;18.92;67.83;-19713.72;4914650;28;45475;-80
2023/05/11 13:56:04;;;;;;;;;0.00;0.00;;;;;18.91;67.94;-19713.31;4915749;28;45655;-82
2023/05/11 13:58:29;;;;;;;;;2.00;1.00;;;;;18.82;68.10;-19710.91;4915953;28;45464;-81
2023/05/11 14:00:55;;;;;;;;;1.33;1.00;;;;;18.74;67.66;-19708.91;4915364;28;46891;-80
2023/05/11 14:03:22;;;;;;;;;1.00;1.00;;;;;18.64;68.54;-19706.38;4975683;28;45369;-80
2023/05/11 14:05:48;;;;;;;;;1.00;1.00;;;;;18.63;68.42;-19706.09;4993401;28;45670;-80
2023/05/11 14:08:13;;;;;;;;;1.00;1.00;;;;;18.75;68.67;-19709.16;4994769;28;45416;-82
2023/05/11 14:10:39;;;;;;;;;1.00;1.00;;;;;18.65;68.88;-19706.63;4994873;28;45804;-79
2023/05/11 14:13:07;;;;;;;;;0.67;0.67;;;;;18.66;68.42;-19706.75;4994848;28;45452;-82
2023/05/11 14:15:33;;;;;;;;;0.67;0.67;;;;;18.54;68.46;-19703.81;4989049;28;45574;-84
2023/05/11 14:18:02;;;;;;;;;1.00;1.00;;;;;18.56;68.77;-19704.34;4995014;28;45763;-83
2023/05/11 14:20:28;;;;;;;;;1.00;1.00;;;;;18.53;69.89;-19703.41;4994500;28;46173;-84
2023/05/11 14:22:53;;;;;;;;;1.00;1.00;;;;;18.36;70.44;-19699.00;4994570;28;45482;-83
2023/05/11 14:25:18;;;;;;;;;1.00;1.00;;;;;18.44;70.53;-19701.16;4995075;28;45424;-83
2023/05/11 14:27:44;;;;;;;;;1.67;1.67;;;;;18.34;71.61;-19698.63;4986636;28;45578;-83
2023/05/11 14:30:09;;;;;;;;;2.00;1.00;;;;;18.37;71.30;-19699.28;4988604;28;45334;-83
2023/05/11 14:32:34;;;;;;;;;1.00;1.00;;;;;18.25;71.77;-19696.06;4976709;28;45502;-82
2023/05/11 14:35:00;;;;;;;;;0.33;0.33;;;;;18.13;71.33;-19693.00;4994637;28;45527;-81
2023/05/11 14:37:25;;;;;;;;;1.00;1.00;;;;;18.27;71.62;-19696.75;4994841;28;45426;-84
2023/05/11 14:39:51;;;;;;;;;1.00;1.00;;;;;18.09;72.10;-19691.94;4994292;28;46074;-82
2023/05/11 14:42:17;;;;;;;;;1.00;1.00;;;;;18.10;72.21;-19692.34;4994697;28;45406;-82
2023/05/11 14:44:42;;;;;;;;;1.67;1.67;;;;;18.04;71.88;-19690.59;4994125;28;45454;-83
2023/05/11 14:47:08;;;;;;;;;1.67;1.67;;;;;18.16;72.13;-19693.81;4969609;28;45488;-82
2023/05/11 14:49:33;;;;;;;;;3.00;1.00;;;;;18.09;71.72;-19691.94;4983638;28;47265;-83
2023/05/11 14:51:58;;;;;;;;;1.00;1.00;;;;;18.12;71.29;-19692.72;4994088;28;45506;-83
2023/05/11 14:54:24;;;;;;;;;3.00;1.00;;;;;17.96;71.50;-19688.44;4994460;28;45692;-83
2023/05/11 14:56:52;;;;;;;;;1.00;1.00;;;;;18.09;71.03;-19691.94;4976698;28;45503;-82
2023/05/11 14:59:19;;;;;;;;;1.00;1.00;;;;;18.08;71.18;-19691.66;4994231;28;47279;-83
2023/05/11 15:01:53;;;;;;;;;3.33;3.00;;;;;17.95;71.03;-19688.31;4994391;28;45438;-88
2023/05/11 15:04:56;;;;;;;;;0.67;0.67;;;;;17.26;70.88;-19670.25;4993352;28;45358;-88
2023/05/11 15:10:47;;;;;;;;;2.00;1.00;;;;;18.04;70.42;-19690.72;5010838;22;45619;-90
2023/05/11 15:13:13;;;;;;;;;1.33;1.33;;;;;17.60;70.39;-19679.09;4998409;28;45413;-91
2023/05/11 15:15:39;;;;;;;;;0.00;0.00;;;;;17.60;69.83;-19679.22;4998995;28;45530;-92
2023/05/11 15:18:12;;;;;;;;;1.67;1.00;;;;;17.50;69.16;-19676.69;5013072;28;45736;-92
2023/05/11 15:20:38;;;;;;;;;2.00;2.00;;;;;17.25;69.34;-19669.97;4978485;28;48091;-92
2023/05/11 15:24:10;;;;;;;;;;;;;;;;;;;;;
2023/05/11 15:31:10;;;;;;;;;1.00;1.00;;;;;17.54;69.02;-19677.47;4957183;28;45541;-93
2023/05/11 15:37:39;;;;;;;;;1.00;1.00;;;;;17.52;69.03;-19677.06;4945698;28;45791;-91
2023/05/11 15:40:08;;;;;;;;;0.00;0.00;;;;;18.30;69.05;-19697.53;4895425;28;45500;-92
2023/05/11 15:42:34;;;;;;;;;1.00;1.00;;;;;18.22;69.08;-19695.41;4882387;29;46015;-91
2023/05/11 15:45:06;;;;;;;;;0.67;0.67;;;;;18.41;68.83;-19700.34;4908117;28;45631;-92
2023/05/11 15:47:33;;;;;;;;;1.00;1.00;;;;;17.41;68.37;-19674.28;4873681;28;45576;-91
2023/05/11 15:49:59;;;;;;;;;1.00;1.00;;;;;17.78;68.53;-19683.91;4881658;29;45943;-91
2023/05/11 15:52:55;;;;;;;;;2.00;2.00;;;;;17.94;68.59;-19688.06;4897608;28;45870;-93
2023/05/11 15:55:29;;;;;;;;;1.67;1.67;;;;;17.75;68.89;-19682.97;4884071;28;46259;-90
2023/05/11 15:57:57;;;;;;;;;1.00;1.00;;;;;17.97;68.57;-19688.72;4880310;29;45988;-90
2023/05/11 16:00:30;;;;;;;;;2.00;2.00;;;;;17.59;68.30;-19678.81;4896226;28;45684;-91
2023/05/11 16:02:58;;;;;;;;;0.33;0.33;;;;;17.54;69.09;-19677.63;4895900;28;45537;-91
2023/05/11 16:05:28;;;;;;;;;1.00;1.00;;;;;18.00;68.47;-19689.66;4894350;29;48266;-92
2023/05/11 16:07:53;;;;;;;;;0.33;0.33;;;;;18.04;69.10;-19690.72;4900851;28;45807;-91
2023/05/11 16:10:19;;;;;;;;;1.00;1.00;;;;;17.69;68.55;-19681.63;4896838;28;45516;-91
2023/05/11 16:12:47;;;;;;;;;1.00;1.00;;;;;18.04;68.92;-19690.72;4920756;28;47030;-89
2023/05/11 16:18:13;;;;;;;;;1.00;1.00;;;;;18.09;68.67;-19691.94;5082435;22;45543;-90
2023/05/11 16:20:38;;;;;;;;;2.00;1.00;;;;;18.10;69.19;-19692.19;4994862;28;45460;-91
2023/05/11 16:23:06;;;;;;;;;1.00;1.00;;;;;17.77;68.90;-19683.63;4989085;28;45583;-92
2023/05/11 16:25:35;;;;;;;;;2.00;1.00;;;;;17.84;69.02;-19685.38;4995736;28;45522;-90
2023/05/11 16:28:00;;;;;;;;;0.75;0.75;;;;;18.66;68.49;-19706.91;5009919;22;45544;-88
2023/05/11 16:30:44;;;;;;;;;0.33;0.33;;;;;18.67;68.55;-19707.16;4993133;28;45598;-87
2023/05/11 16:33:47;;;;;;;;;0.33;0.33;;;;;18.50;68.57;-19702.75;4993405;28;46448;-87
2023/05/11 16:36:12;;;;;;;;;0.00;0.00;;;;;18.65;68.79;-19706.50;4992096;28;46490;-88
2023/05/11 16:38:38;;;;;;;;;2.33;1.00;;;;;18.01;68.39;-19689.78;4990469;28;45552;-85
2023/05/11 16:41:06;;;;;;;;;1.00;1.00;;;;;18.22;68.57;-19695.41;4995687;28;45926;-90
2023/05/11 16:43:32;;;;;;;;;1.00;1.00;;;;;18.35;68.71;-19698.75;4998371;28;45494;-92
2023/05/11 16:45:57;;;;;;;;;1.00;1.00;;;;;18.57;68.17;-19704.50;4995752;28;47320;-90
2023/05/11 16:48:25;;;;;;;;;1.00;1.00;;;;;18.61;68.56;-19705.56;4991085;28;47205;-94
2023/05/11 16:50:52;;;;;;;;;4.00;2.00;;;;;18.28;68.51;-19696.88;4996562;28;45466;-89
2023/05/11 16:53:20;;;;;;;;;1.00;1.00;;;;;18.24;68.08;-19695.81;4996800;28;45721;-91
2023/05/11 16:55:46;;;;;;;;;2.00;0.75;;;;;17.85;67.79;-19685.66;4996209;28;45839;-93
2023/05/11 16:58:11;;;;;;;;;1.00;1.00;;;;;18.20;67.82;-19694.88;4980402;28;45978;-90
2023/05/11 17:00:37;;;;;;;;;2.00;1.00;;;;;18.59;68.02;-19705.03;4995694;28;45455;-86
2023/05/11 17:03:02;;;;;;;;;1.33;1.33;;;;;18.57;68.12;-19704.50;4994787;28;45674;-87
2023/05/11 17:05:30;;;;;;;;;1.00;1.00;;;;;18.13;68.30;-19693.00;4996186;28;45851;-88
2023/05/11 17:07:56;;;;;;;;;2.33;1.00;;;;;18.49;68.50;-19702.47;4996708;28;45344;-88
2023/05/11 17:10:30;;;;;;;;;2.00;1.00;;;;;18.48;68.04;-19702.09;4996805;28;45881;-89
2023/05/11 17:12:56;;;;;;;;;1.00;1.00;;;;;18.46;68.10;-19701.69;5005672;22;45500;-88
2023/05/11 17:18:16;;;;;;;;;2.00;2.00;;;;;18.42;67.72;-19700.63;5014294;28;45761;-90
2023/05/11 17:20:51;;;;;;;;;0.33;0.33;;;;;17.49;68.01;-19676.28;5026149;28;45488;-90
2023/05/11 17:23:16;;;;;;;;;1.00;1.00;;;;;18.09;67.79;-19692.06;5027590;28;45723;-89
2023/05/11 17:25:42;;;;;;;;;2.00;2.00;;;;;17.79;68.06;-19684.16;5024967;28;47993;-90
2023/05/11 17:28:10;;;;;;;;;2.00;1.67;;;;;17.90;68.54;-19687.13;5006394;28;45438;-89
2023/05/11 17:30:45;;;;;;;;;2.00;2.00;;;;;17.37;68.77;-19673.19;5002026;28;45768;-89
2023/05/11 17:33:22;;;;;;;;;2.67;2.00;;;;;17.48;68.78;-19676.13;4998950;28;45903;-89